Time;durP1;ratioP1;P1;durP2;ratioP2;P2;SDS_P1;SDS_P2;PMS_P1;PMS_P2;Temp;Humidity;BMP_temperature;BMP_pressure;BME280_temperature;BME280_humidity;BME280_pressure;Samples;Min_cycle;Max_cycle;Signal;HPM_P1;HPM_P2
2021/08/20 00:02:11;;;;;;;10.07;1.97;;;;;;;;;;5028587;28;20931;-71
2021/08/20 00:04:37;;;;;;;5.80;2.40;;;;;;;;;;5016614;28;20794;-71
2021/08/20 00:07:03;;;;;;;3.33;2.30;;;;;;;;;;5027503;28;20466;-71
2021/08/20 00:09:30;;;;;;;5.20;2.67;;;;;;;;;;5027169;28;20458;-71
2021/08/20 00:11:56;;;;;;;4.50;3.27;;;;;;;;;;5017608;28;20919;-72
2021/08/20 00:14:22;;;;;;;5.73;2.47;;;;;;;;;;5004443;28;20923;-71
2021/08/20 00:16:48;;;;;;;4.60;2.77;;;;;;;;;;5017589;28;20422;-71
2021/08/20 00:19:14;;;;;;;3.80;3.00;;;;;;;;;;5016719;28;20439;-71
2021/08/20 00:21:40;;;;;;;5.53;3.20;;;;;;;;;;5019278;28;20400;-71
2021/08/20 00:24:07;;;;;;;5.17;3.37;;;;;;;;;;5014130;28;20479;-71
2021/08/20 00:26:33;;;;;;;8.50;2.97;;;;;;;;;;4998051;28;20791;-71
2021/08/20 00:29:00;;;;;;;5.77;3.47;;;;;;;;;;5000893;28;20433;-72
2021/08/20 00:31:26;;;;;;;5.23;3.53;;;;;;;;;;5017274;28;20463;-72
2021/08/20 00:33:52;;;;;;;4.87;3.07;;;;;;;;;;5017021;28;20411;-72
2021/08/20 00:36:18;;;;;;;6.07;3.27;;;;;;;;;;5017278;28;20439;-71
2021/08/20 00:38:44;;;;;;;7.60;3.00;;;;;;;;;;5022337;28;20410;-72
2021/08/20 00:41:11;;;;;;;4.30;3.00;;;;;;;;;;4997431;28;20407;-71
2021/08/20 00:43:38;;;;;;;4.50;2.87;;;;;;;;;;5031869;28;20424;-71
2021/08/20 00:46:04;;;;;;;7.90;3.33;;;;;;;;;;5016578;28;20443;-71
2021/08/20 00:48:30;;;;;;;5.27;3.13;;;;;;;;;;5017877;28;20438;-71
2021/08/20 00:51:08;;;;;;;8.30;3.33;;;;;;;;;;5016379;28;20923;-71
2021/08/20 00:53:36;;;;;;;5.70;3.40;;;;;;;;;;5017145;28;20403;-71
2021/08/20 00:56:03;;;;;;;5.60;3.10;;;;;;;;;;5016406;28;20529;-71
2021/08/20 00:58:31;;;;;;;4.17;2.77;;;;;;;;;;5026001;28;20772;-72
2021/08/20 01:00:57;;;;;;;5.90;2.80;;;;;;;;;;5017544;28;20430;-72
2021/08/20 01:03:25;;;;;;;5.40;3.57;;;;;;;;;;5036221;28;20418;-71
2021/08/20 01:05:51;;;;;;;6.03;2.97;;;;;;;;;;5018679;28;20443;-71
2021/08/20 01:08:18;;;;;;;6.03;3.00;;;;;;;;;;5025355;28;20441;-71
2021/08/20 01:10:44;;;;;;;5.03;2.67;;;;;;;;;;5002484;28;20464;-72
2021/08/20 01:13:10;;;;;;;4.00;2.73;;;;;;;;;;5016597;28;20458;-71
2021/08/20 01:15:36;;;;;;;4.40;2.83;;;;;;;;;;5016061;28;20443;-72
2021/08/20 01:18:02;;;;;;;4.30;3.33;;;;;;;;;;5043495;23;20490;-72
2021/08/20 01:20:28;;;;;;;4.60;3.20;;;;;;;;;;5034367;28;20469;-72
2021/08/20 01:22:54;;;;;;;5.60;3.93;;;;;;;;;;5036352;28;20460;-72
2021/08/20 01:25:20;;;;;;;4.13;2.57;;;;;;;;;;5027277;28;20420;-72
2021/08/20 01:27:47;;;;;;;5.40;3.40;;;;;;;;;;5017095;28;20431;-72
2021/08/20 01:30:14;;;;;;;4.50;2.80;;;;;;;;;;5023749;28;20475;-72
2021/08/20 01:32:40;;;;;;;5.60;3.83;;;;;;;;;;5035937;28;20498;-72
2021/08/20 01:35:06;;;;;;;4.00;2.97;;;;;;;;;;5035313;28;20441;-71
2021/08/20 01:37:32;;;;;;;6.33;3.87;;;;;;;;;;5034284;28;20449;-72
2021/08/20 01:39:58;;;;;;;6.00;3.93;;;;;;;;;;5035124;28;20426;-72
2021/08/20 01:42:25;;;;;;;5.00;3.40;;;;;;;;;;5035875;28;20402;-72
2021/08/20 01:44:51;;;;;;;5.63;3.70;;;;;;;;;;5035169;28;20518;-72
2021/08/20 01:47:17;;;;;;;7.20;4.70;;;;;;;;;;5034483;28;20434;-72
2021/08/20 01:49:43;;;;;;;6.70;5.07;;;;;;;;;;5034816;28;20457;-72
2021/08/20 01:52:10;;;;;;;6.73;4.70;;;;;;;;;;5035624;28;20410;-73
2021/08/20 01:54:36;;;;;;;7.70;4.50;;;;;;;;;;5033348;28;20887;-72
2021/08/20 01:57:02;;;;;;;6.90;4.20;;;;;;;;;;5017668;28;20436;-72
2021/08/20 01:59:28;;;;;;;16.33;4.40;;;;;;;;;;5015487;28;20614;-72
2021/08/20 02:01:54;;;;;;;7.87;4.33;;;;;;;;;;5032594;28;20438;-72
2021/08/20 02:04:20;;;;;;;8.40;3.90;;;;;;;;;;5035265;28;20399;-73
2021/08/20 02:06:46;;;;;;;6.70;3.53;;;;;;;;;;5025291;28;20451;-72
2021/08/20 02:09:12;;;;;;;6.20;4.00;;;;;;;;;;5015772;28;20857;-72
2021/08/20 02:11:40;;;;;;;5.17;3.53;;;;;;;;;;5027743;28;20939;-72
2021/08/20 02:14:06;;;;;;;5.70;4.00;;;;;;;;;;5035065;28;20390;-72
2021/08/20 02:16:32;;;;;;;7.93;4.80;;;;;;;;;;5026452;28;20997;-72
2021/08/20 02:18:58;;;;;;;5.97;4.03;;;;;;;;;;5036138;28;20398;-72
2021/08/20 02:21:24;;;;;;;6.00;4.40;;;;;;;;;;5035031;28;20438;-72
2021/08/20 02:23:50;;;;;;;4.93;3.90;;;;;;;;;;5037591;28;20415;-72
2021/08/20 02:26:16;;;;;;;7.10;4.53;;;;;;;;;;5037828;28;20450;-71
2021/08/20 02:28:42;;;;;;;7.50;3.80;;;;;;;;;;5041039;28;20407;-72
2021/08/20 02:31:08;;;;;;;6.03;4.43;;;;;;;;;;5032594;28;20520;-72
2021/08/20 02:33:34;;;;;;;5.63;4.30;;;;;;;;;;5034221;28;20421;-72
2021/08/20 02:36:02;;;;;;;11.00;4.40;;;;;;;;;;5032923;28;20437;-72
2021/08/20 02:38:29;;;;;;;7.83;4.47;;;;;;;;;;5034721;28;20768;-73
2021/08/20 02:40:55;;;;;;;6.20;4.67;;;;;;;;;;5033722;28;20430;-72
2021/08/20 02:43:21;;;;;;;8.27;4.50;;;;;;;;;;5033963;28;20445;-72
2021/08/20 02:45:47;;;;;;;6.10;4.30;;;;;;;;;;5032462;28;20435;-72
2021/08/20 02:48:14;;;;;;;6.73;4.30;;;;;;;;;;5034124;28;20484;-73
2021/08/20 02:50:40;;;;;;;7.10;4.00;;;;;;;;;;5033270;28;20454;-72
2021/08/20 02:53:06;;;;;;;6.20;4.10;;;;;;;;;;5017562;28;20542;-73
2021/08/20 02:55:33;;;;;;;4.90;3.53;;;;;;;;;;5013038;28;20892;-72
2021/08/20 02:57:59;;;;;;;7.43;4.77;;;;;;;;;;5025135;28;20497;-73
2021/08/20 03:00:25;;;;;;;9.27;4.20;;;;;;;;;;5014371;28;20486;-72
2021/08/20 03:02:51;;;;;;;5.47;4.60;;;;;;;;;;5032232;28;20426;-73
2021/08/20 03:05:17;;;;;;;5.10;4.07;;;;;;;;;;5033537;28;20418;-72
2021/08/20 03:07:43;;;;;;;5.70;4.30;;;;;;;;;;5032977;28;20500;-72
2021/08/20 03:10:10;;;;;;;9.80;5.43;;;;;;;;;;5033847;28;20450;-72
2021/08/20 03:12:36;;;;;;;7.50;5.20;;;;;;;;;;5032855;28;20522;-72
2021/08/20 03:15:02;;;;;;;5.60;4.00;;;;;;;;;;5031549;28;20966;-73
2021/08/20 03:17:28;;;;;;;7.40;5.10;;;;;;;;;;5032808;28;20520;-73
2021/08/20 03:19:54;;;;;;;8.03;5.73;;;;;;;;;;5033823;28;20855;-73
2021/08/20 03:22:20;;;;;;;6.23;4.63;;;;;;;;;;5032282;28;20439;-72
2021/08/20 03:24:46;;;;;;;8.10;5.77;;;;;;;;;;5017193;28;20411;-72
2021/08/20 03:27:12;;;;;;;7.30;5.40;;;;;;;;;;5025843;28;20843;-72
2021/08/20 03:29:38;;;;;;;6.60;5.30;;;;;;;;;;5033213;28;20520;-72
2021/08/20 03:32:04;;;;;;;6.47;4.60;;;;;;;;;;5032282;28;20423;-72
2021/08/20 03:34:30;;;;;;;6.37;3.87;;;;;;;;;;5033022;28;20418;-72
2021/08/20 03:36:56;;;;;;;5.93;4.40;;;;;;;;;;5032759;28;20938;-72
2021/08/20 03:39:22;;;;;;;7.67;4.50;;;;;;;;;;5033034;28;20502;-72
2021/08/20 03:41:48;;;;;;;8.33;4.23;;;;;;;;;;5031142;28;20438;-72
2021/08/20 03:44:15;;;;;;;6.47;4.17;;;;;;;;;;5030602;28;20411;-72
2021/08/20 03:46:41;;;;;;;5.70;3.80;;;;;;;;;;5032510;28;20455;-72
2021/08/20 03:49:07;;;;;;;6.70;4.57;;;;;;;;;;5031694;28;20434;-72
2021/08/20 03:51:33;;;;;;;6.30;4.00;;;;;;;;;;5031379;28;20466;-73
2021/08/20 03:53:59;;;;;;;6.60;3.60;;;;;;;;;;5017665;28;20416;-72
2021/08/20 03:56:25;;;;;;;7.27;4.50;;;;;;;;;;5018594;28;20465;-71
2021/08/20 03:58:53;;;;;;;6.40;4.50;;;;;;;;;;5031645;28;20424;-72
2021/08/20 04:01:19;;;;;;;5.53;4.30;;;;;;;;;;5016865;28;20431;-72
2021/08/20 04:03:45;;;;;;;11.80;5.93;;;;;;;;;;5032964;28;20839;-72
2021/08/20 04:06:11;;;;;;;10.50;6.00;;;;;;;;;;5035246;28;20431;-72
2021/08/20 04:08:40;;;;;;;9.60;4.87;;;;;;;;;;5034751;28;20442;-72
2021/08/20 04:11:09;;;;;;;6.13;4.83;;;;;;;;;;5035349;28;20453;-72
2021/08/20 04:13:35;;;;;;;6.03;4.40;;;;;;;;;;5033235;28;20455;-72
2021/08/20 04:16:01;;;;;;;6.13;3.70;;;;;;;;;;5031728;28;20438;-72
2021/08/20 04:18:27;;;;;;;5.53;4.30;;;;;;;;;;5031278;28;20451;-71
2021/08/20 04:20:53;;;;;;;7.63;4.13;;;;;;;;;;5030443;28;20919;-71
2021/08/20 04:23:19;;;;;;;5.83;4.10;;;;;;;;;;5032324;28;20426;-72
2021/08/20 04:25:45;;;;;;;5.37;4.47;;;;;;;;;;5032029;28;20414;-72
2021/08/20 04:28:11;;;;;;;7.03;3.80;;;;;;;;;;5031862;28;20454;-73
2021/08/20 04:30:37;;;;;;;6.53;4.00;;;;;;;;;;5032489;28;20973;-73
2021/08/20 04:33:03;;;;;;;7.40;4.17;;;;;;;;;;5032444;28;20430;-73
2021/08/20 04:35:29;;;;;;;5.57;4.30;;;;;;;;;;5033661;28;20438;-73
2021/08/20 04:37:56;;;;;;;9.50;3.77;;;;;;;;;;5032023;28;20442;-73
2021/08/20 04:40:22;;;;;;;5.33;4.10;;;;;;;;;;5032384;28;20501;-73
2021/08/20 04:42:48;;;;;;;6.40;4.40;;;;;;;;;;5033360;28;20430;-73
2021/08/20 04:45:16;;;;;;;7.30;4.80;;;;;;;;;;5037799;28;20417;-73
2021/08/20 04:47:42;;;;;;;6.90;4.50;;;;;;;;;;5040732;28;20455;-72
2021/08/20 04:50:09;;;;;;;10.20;5.20;;;;;;;;;;5050586;28;20454;-72
2021/08/20 04:52:35;;;;;;;8.97;4.53;;;;;;;;;;5039018;28;20430;-72
2021/08/20 04:55:01;;;;;;;5.40;4.70;;;;;;;;;;5036735;28;20394;-72
2021/08/20 04:57:27;;;;;;;6.43;4.00;;;;;;;;;;5035406;28;20510;-72
2021/08/20 04:59:54;;;;;;;6.60;4.77;;;;;;;;;;5036559;28;20492;-73
2021/08/20 05:02:20;;;;;;;6.50;4.43;;;;;;;;;;5021535;28;20418;-72
2021/08/20 05:04:46;;;;;;;6.10;4.07;;;;;;;;;;5035651;28;20426;-72
2021/08/20 05:07:12;;;;;;;8.03;4.10;;;;;;;;;;5034978;28;20491;-72
2021/08/20 05:09:38;;;;;;;9.20;5.00;;;;;;;;;;5035880;28;20477;-73
2021/08/20 05:12:05;;;;;;;5.73;3.77;;;;;;;;;;5034519;28;20419;-72
2021/08/20 05:14:31;;;;;;;6.80;4.00;;;;;;;;;;5034805;28;20513;-72
2021/08/20 05:16:57;;;;;;;8.13;4.17;;;;;;;;;;5035384;28;20451;-72
2021/08/20 05:19:23;;;;;;;5.83;3.93;;;;;;;;;;5035426;28;20422;-72
2021/08/20 05:21:49;;;;;;;8.47;4.17;;;;;;;;;;5020267;28;20756;-72
2021/08/20 05:24:15;;;;;;;6.97;4.23;;;;;;;;;;5031404;28;20431;-71
2021/08/20 05:26:41;;;;;;;5.90;4.37;;;;;;;;;;5035017;28;20514;-72
2021/08/20 05:29:08;;;;;;;6.43;3.60;;;;;;;;;;5035209;28;20456;-72
2021/08/20 05:31:34;;;;;;;5.23;3.97;;;;;;;;;;5035415;28;20935;-72
2021/08/20 05:34:00;;;;;;;5.70;4.17;;;;;;;;;;5034111;28;20429;-73
2021/08/20 05:36:27;;;;;;;7.73;4.43;;;;;;;;;;5034696;28;20447;-71
2021/08/20 05:38:53;;;;;;;6.70;4.63;;;;;;;;;;5035169;28;20423;-72
2021/08/20 05:41:19;;;;;;;6.20;4.20;;;;;;;;;;5035163;28;20411;-73
2021/08/20 05:43:45;;;;;;;5.03;4.07;;;;;;;;;;5034692;28;20438;-73
2021/08/20 05:46:11;;;;;;;7.93;4.23;;;;;;;;;;5034946;28;20428;-73
2021/08/20 05:48:37;;;;;;;5.80;4.37;;;;;;;;;;5034629;28;20453;-73
2021/08/20 05:51:03;;;;;;;5.10;3.67;;;;;;;;;;5034866;28;20500;-73
2021/08/20 05:53:29;;;;;;;13.20;5.03;;;;;;;;;;5034552;28;20426;-74
2021/08/20 05:55:56;;;;;;;5.23;3.93;;;;;;;;;;5032339;28;20442;-73
2021/08/20 05:58:22;;;;;;;5.70;3.90;;;;;;;;;;5022372;28;20430;-73
2021/08/20 06:00:49;;;;;;;5.27;4.43;;;;;;;;;;5019889;28;20407;-73
2021/08/20 06:03:21;;;;;;;5.87;4.20;;;;;;;;;;5021548;28;20430;-73
2021/08/20 06:05:47;;;;;;;5.67;3.37;;;;;;;;;;5030959;28;20834;-73
2021/08/20 06:08:13;;;;;;;5.47;3.97;;;;;;;;;;5020899;28;20967;-72
2021/08/20 06:10:43;;;;;;;5.30;3.83;;;;;;;;;;5033034;28;20458;-78
2021/08/20 06:13:10;;;;;;;5.30;3.80;;;;;;;;;;5034168;28;20498;-73
2021/08/20 06:15:36;;;;;;;5.10;3.63;;;;;;;;;;5034219;28;20482;-74
2021/08/20 06:18:02;;;;;;;5.53;4.07;;;;;;;;;;5033815;28;20487;-74
2021/08/20 06:20:28;;;;;;;5.30;3.93;;;;;;;;;;5034411;28;20399;-74
2021/08/20 06:22:54;;;;;;;5.60;3.97;;;;;;;;;;5034071;28;20434;-74
2021/08/20 06:25:20;;;;;;;8.83;3.90;;;;;;;;;;5034285;28;20403;-73
2021/08/20 06:27:46;;;;;;;6.57;3.43;;;;;;;;;;5034239;28;20784;-72
2021/08/20 06:30:12;;;;;;;6.30;4.20;;;;;;;;;;5033622;28;20485;-72
2021/08/20 06:32:38;;;;;;;5.80;4.07;;;;;;;;;;5034428;28;20409;-72
2021/08/20 06:35:04;;;;;;;7.23;3.73;;;;;;;;;;5034473;28;20806;-72
2021/08/20 06:37:30;;;;;;;6.20;4.00;;;;;;;;;;5034925;28;20450;-73
2021/08/20 06:39:56;;;;;;;5.33;4.00;;;;;;;;;;5033390;28;20461;-72
2021/08/20 06:42:22;;;;;;;5.63;4.30;;;;;;;;;;5034579;28;20413;-73
2021/08/20 06:44:49;;;;;;;7.07;3.93;;;;;;;;;;5033234;28;20498;-72
2021/08/20 06:47:15;;;;;;;6.60;4.50;;;;;;;;;;5034430;28;20415;-72
2021/08/20 06:49:41;;;;;;;5.70;4.17;;;;;;;;;;5034760;28;20844;-73
2021/08/20 06:52:10;;;;;;;6.67;3.90;;;;;;;;;;5036604;28;20411;-72
2021/08/20 06:54:36;;;;;;;5.80;4.07;;;;;;;;;;5034069;28;20430;-72
2021/08/20 06:57:02;;;;;;;5.33;3.63;;;;;;;;;;5032950;28;20857;-72
2021/08/20 06:59:29;;;;;;;6.63;3.60;;;;;;;;;;5031193;28;20422;-72
2021/08/20 07:01:55;;;;;;;5.00;3.47;;;;;;;;;;5027880;28;20437;-72
2021/08/20 07:04:21;;;;;;;5.67;3.77;;;;;;;;;;5031990;28;20442;-72
2021/08/20 07:06:47;;;;;;;5.10;3.70;;;;;;;;;;5033752;28;20431;-72
2021/08/20 07:09:13;;;;;;;5.53;4.10;;;;;;;;;;5026984;28;20511;-73
2021/08/20 07:11:39;;;;;;;5.57;3.83;;;;;;;;;;5035556;28;21298;-73
2021/08/20 07:14:05;;;;;;;6.47;4.50;;;;;;;;;;5033286;28;20521;-73
2021/08/20 07:16:31;;;;;;;6.37;3.60;;;;;;;;;;5032472;28;20472;-73
2021/08/20 07:18:57;;;;;;;6.03;4.70;;;;;;;;;;5031116;28;20480;-73
2021/08/20 07:21:23;;;;;;;5.00;3.60;;;;;;;;;;5033868;28;20885;-73
2021/08/20 07:23:49;;;;;;;6.50;4.10;;;;;;;;;;5031858;28;20908;-74
2021/08/20 07:26:15;;;;;;;4.73;3.90;;;;;;;;;;5033424;28;20402;-74
2021/08/20 07:28:41;;;;;;;6.13;4.20;;;;;;;;;;5032046;28;20799;-73
2021/08/20 07:31:07;;;;;;;4.73;3.83;;;;;;;;;;5033694;28;20477;-73
2021/08/20 07:33:33;;;;;;;5.47;3.87;;;;;;;;;;5028838;28;20432;-73
2021/08/20 07:35:59;;;;;;;5.23;3.43;;;;;;;;;;5024591;28;20426;-71
2021/08/20 07:38:26;;;;;;;6.10;3.73;;;;;;;;;;5025355;28;20430;-72
2021/08/20 07:40:52;;;;;;;8.07;4.67;;;;;;;;;;5024917;28;20481;-72
2021/08/20 07:43:18;;;;;;;7.23;4.00;;;;;;;;;;5025581;28;20803;-72
2021/08/20 07:45:44;;;;;;;7.30;3.50;;;;;;;;;;5025023;28;20436;-72
2021/08/20 07:48:12;;;;;;;6.67;3.90;;;;;;;;;;5023996;28;21775;-74
2021/08/20 07:50:38;;;;;;;4.10;3.60;;;;;;;;;;5023112;28;20455;-74
2021/08/20 07:53:04;;;;;;;7.00;3.97;;;;;;;;;;5024537;28;20442;-73
2021/08/20 07:55:30;;;;;;;4.40;2.97;;;;;;;;;;5023811;28;20411;-73
2021/08/20 07:57:56;;;;;;;6.83;4.70;;;;;;;;;;5025429;28;20537;-74
2021/08/20 08:00:24;;;;;;;6.50;4.50;;;;;;;;;;5024683;28;20431;-73
2021/08/20 08:02:50;;;;;;;5.50;4.47;;;;;;;;;;5024858;28;20429;-73
2021/08/20 08:05:16;;;;;;;4.77;3.30;;;;;;;;;;5024272;28;20458;-72
2021/08/20 08:07:43;;;;;;;5.20;3.63;;;;;;;;;;5025706;28;20456;-74
2021/08/20 08:10:09;;;;;;;7.17;4.47;;;;;;;;;;5025792;28;20978;-73
2021/08/20 08:12:35;;;;;;;5.93;4.50;;;;;;;;;;5025228;28;20434;-72
2021/08/20 08:15:01;;;;;;;7.60;4.27;;;;;;;;;;5026515;28;20476;-74
2021/08/20 08:17:27;;;;;;;8.07;4.30;;;;;;;;;;5024793;28;20454;-72
2021/08/20 08:19:53;;;;;;;8.07;4.23;;;;;;;;;;5028720;28;20443;-70
2021/08/20 08:22:19;;;;;;;7.63;4.40;;;;;;;;;;5029763;28;20438;-72
2021/08/20 08:24:45;;;;;;;7.87;4.63;;;;;;;;;;5028108;28;20444;-74
2021/08/20 08:27:11;;;;;;;9.90;3.40;;;;;;;;;;5029511;28;20529;-72
2021/08/20 08:29:37;;;;;;;5.73;3.30;;;;;;;;;;5030145;28;20449;-71
2021/08/20 08:32:03;;;;;;;8.40;4.50;;;;;;;;;;5029609;28;20441;-71
2021/08/20 08:34:29;;;;;;;7.50;4.10;;;;;;;;;;5029094;28;20452;-71
2021/08/20 08:36:55;;;;;;;6.73;4.20;;;;;;;;;;5028676;28;20951;-71
2021/08/20 08:39:22;;;;;;;4.53;4.07;;;;;;;;;;5028159;28;20521;-69
2021/08/20 08:41:48;;;;;;;6.10;4.37;;;;;;;;;;5028916;28;20421;-71
2021/08/20 08:44:14;;;;;;;4.70;4.10;;;;;;;;;;5027736;28;20429;-72
2021/08/20 08:46:42;;;;;;;7.43;4.13;;;;;;;;;;5026203;28;20525;-70
2021/08/20 08:49:08;;;;;;;13.50;4.40;;;;;;;;;;5029202;28;20433;-71
2021/08/20 08:51:34;;;;;;;5.87;3.83;;;;;;;;;;5028655;28;20445;-71
2021/08/20 08:54:00;;;;;;;14.00;4.37;;;;;;;;;;5028790;28;20419;-72
2021/08/20 08:56:26;;;;;;;5.10;4.00;;;;;;;;;;5028295;28;20434;-74
2021/08/20 08:58:52;;;;;;;6.27;4.00;;;;;;;;;;5029287;28;20426;-72
2021/08/20 09:01:39;;;;;;;7.47;4.37;;;;;;;;;;5029141;28;20425;-69
2021/08/20 09:04:15;;;;;;;6.57;3.90;;;;;;;;;;5024602;28;20417;-71
2021/08/20 09:06:42;;;;;;;5.80;3.93;;;;;;;;;;5035294;28;20437;-72
2021/08/20 09:09:09;;;;;;;8.07;5.17;;;;;;;;;;5034210;28;20410;-69
2021/08/20 09:11:36;;;;;;;7.30;5.17;;;;;;;;;;5030147;28;20450;-70
2021/08/20 09:14:02;;;;;;;7.07;5.53;;;;;;;;;;5030299;28;20826;-68
2021/08/20 09:16:39;;;;;;;6.60;4.47;;;;;;;;;;5024438;28;20477;-71
2021/08/20 09:19:24;;;;;;;6.43;4.63;;;;;;;;;;5029146;28;20414;-71
2021/08/20 09:21:54;;;;;;;10.30;4.80;;;;;;;;;;5030698;28;20414;-71
2021/08/20 09:24:30;;;;;;;8.57;5.00;;;;;;;;;;5029632;28;21040;-70
2021/08/20 09:27:17;;;;;;;7.07;4.50;;;;;;;;;;5026177;28;20493;-76
2021/08/20 09:29:59;;;;;;;7.13;5.30;;;;;;;;;;5028681;28;20448;-74
2021/08/20 09:32:25;;;;;;;5.03;4.00;;;;;;;;;;5028799;28;20414;-74
2021/08/20 09:34:55;;;;;;;7.07;5.40;;;;;;;;;;5031500;28;20530;-72
2021/08/20 09:37:21;;;;;;;7.33;5.13;;;;;;;;;;5023276;28;20771;-74
2021/08/20 09:39:48;;;;;;;7.40;5.17;;;;;;;;;;5034805;28;20423;-74
2021/08/20 09:42:17;;;;;;;9.90;4.23;;;;;;;;;;5030405;28;20422;-73
2021/08/20 09:44:43;;;;;;;5.77;4.00;;;;;;;;;;5028740;28;20485;-71
2021/08/20 09:47:09;;;;;;;4.40;3.40;;;;;;;;;;5031762;28;20445;-71
2021/08/20 09:49:55;;;;;;;8.00;4.80;;;;;;;;;;5032395;28;20422;-76
2021/08/20 09:52:28;;;;;;;6.63;4.60;;;;;;;;;;5021214;28;20411;-75
2021/08/20 09:54:54;;;;;;;6.43;4.60;;;;;;;;;;5031530;28;20420;-74
2021/08/20 09:57:26;;;;;;;6.87;4.20;;;;;;;;;;5032675;28;20858;-71
2021/08/20 09:59:54;;;;;;;6.90;3.30;;;;;;;;;;5030857;28;20458;-72
2021/08/20 10:02:24;;;;;;;4.20;3.03;;;;;;;;;;5032168;28;20927;-77
2021/08/20 10:04:50;;;;;;;4.87;2.93;;;;;;;;;;5034626;28;20449;-70
2021/08/20 10:07:18;;;;;;;3.83;2.77;;;;;;;;;;5025199;28;20426;-69
2021/08/20 10:09:45;;;;;;;5.60;3.37;;;;;;;;;;5020329;28;20421;-72
2021/08/20 10:12:12;;;;;;;5.93;3.20;;;;;;;;;;5030869;28;20418;-72
2021/08/20 10:14:38;;;;;;;4.90;2.90;;;;;;;;;;5028368;28;20944;-73
2021/08/20 10:17:05;;;;;;;4.40;2.77;;;;;;;;;;5033552;28;20499;-73
2021/08/20 10:19:31;;;;;;;4.20;3.10;;;;;;;;;;5032492;28;20811;-73
2021/08/20 10:21:57;;;;;;;4.20;2.97;;;;;;;;;;5024470;28;20510;-73
2021/08/20 10:24:23;;;;;;;3.67;2.53;;;;;;;;;;5033928;28;20403;-73
2021/08/20 10:26:57;;;;;;;3.90;2.57;;;;;;;;;;5033700;28;20476;-72
2021/08/20 10:29:23;;;;;;;4.07;2.30;;;;;;;;;;5033426;28;20490;-74
2021/08/20 10:31:49;;;;;;;3.13;2.37;;;;;;;;;;5034774;28;20464;-73
2021/08/20 10:34:31;;;;;;;3.80;2.40;;;;;;;;;;5034632;28;20414;-73
2021/08/20 10:37:04;;;;;;;5.70;2.70;;;;;;;;;;5029465;28;20470;-72
2021/08/20 10:39:30;;;;;;;3.50;2.13;;;;;;;;;;5015258;28;20407;-72
2021/08/20 10:42:16;;;;;;;3.10;2.10;;;;;;;;;;5033553;28;20524;-72
2021/08/20 10:44:43;;;;;;;3.23;2.40;;;;;;;;;;5032355;28;20410;-72
2021/08/20 10:47:20;;;;;;;3.20;2.60;;;;;;;;;;5033139;28;20437;-72
2021/08/20 10:49:47;;;;;;;4.23;2.40;;;;;;;;;;5032787;28;20417;-73
2021/08/20 10:52:23;;;;;;;4.43;2.40;;;;;;;;;;5034273;28;20417;-74
2021/08/20 10:54:49;;;;;;;3.53;2.33;;;;;;;;;;5032392;28;20394;-73
2021/08/20 10:57:34;;;;;;;4.83;2.50;;;;;;;;;;5033419;28;20442;-73
2021/08/20 11:00:00;;;;;;;3.67;2.40;;;;;;;;;;5029114;28;20418;-73
2021/08/20 11:02:26;;;;;;;4.43;2.50;;;;;;;;;;5033612;28;20426;-73
2021/08/20 11:05:11;;;;;;;2.87;2.13;;;;;;;;;;5029488;28;20437;-73
2021/08/20 11:07:41;;;;;;;3.13;2.30;;;;;;;;;;5018257;28;20564;-73
2021/08/20 11:10:10;;;;;;;5.80;2.60;;;;;;;;;;5025020;28;20805;-73
2021/08/20 11:12:47;;;;;;;2.73;1.80;;;;;;;;;;5022353;28;20439;-71
2021/08/20 11:15:19;;;;;;;2.93;1.80;;;;;;;;;;5024806;28;20422;-72
2021/08/20 11:17:51;;;;;;;3.30;2.53;;;;;;;;;;5023146;28;20457;-73
2021/08/20 11:20:21;;;;;;;3.27;2.23;;;;;;;;;;5023809;28;20437;-73
2021/08/20 11:25:39;;;;;;;2.90;2.13;;;;;;;;;;5024916;28;20526;-73
2021/08/20 11:28:06;;;;;;;5.73;2.63;;;;;;;;;;5023428;28;20461;-73
2021/08/20 11:30:33;;;;;;;4.30;2.93;;;;;;;;;;5031469;28;20454;-73
2021/08/20 11:33:22;;;;;;;4.33;2.47;;;;;;;;;;5033408;28;20411;-73
2021/08/20 11:35:49;;;;;;;5.87;2.50;;;;;;;;;;5030097;28;20515;-73
2021/08/20 11:38:42;;;;;;;6.80;2.70;;;;;;;;;;5023648;28;20438;-73
2021/08/20 11:41:20;;;;;;;3.40;2.37;;;;;;;;;;5022458;28;20489;-73
2021/08/20 11:43:47;;;;;;;5.27;2.63;;;;;;;;;;5031827;28;20444;-73
2021/08/20 11:46:13;;;;;;;4.33;3.00;;;;;;;;;;5024389;28;20422;-73
2021/08/20 11:48:44;;;;;;;4.30;2.33;;;;;;;;;;5032731;28;20442;-73
2021/08/20 11:51:14;;;;;;;3.90;2.70;;;;;;;;;;5032503;28;20472;-73
2021/08/20 11:53:43;;;;;;;3.67;2.47;;;;;;;;;;5033045;28;20399;-73
2021/08/20 11:56:13;;;;;;;3.20;2.40;;;;;;;;;;5023962;28;20886;-73
2021/08/20 11:58:39;;;;;;;4.97;2.57;;;;;;;;;;5022951;28;20932;-73
2021/08/20 12:01:06;;;;;;;3.10;2.03;;;;;;;;;;5022214;28;20584;-73
2021/08/20 12:03:35;;;;;;;3.57;2.80;;;;;;;;;;5033401;28;20413;-74
2021/08/20 12:06:10;;;;;;;3.60;2.20;;;;;;;;;;5030995;28;20418;-73
2021/08/20 12:08:37;;;;;;;5.03;2.23;;;;;;;;;;5033199;28;20454;-73
2021/08/20 12:11:03;;;;;;;2.93;2.00;;;;;;;;;;5033164;28;20456;-73
2021/08/20 12:13:29;;;;;;;3.07;2.10;;;;;;;;;;5032391;28;20410;-73
2021/08/20 12:15:55;;;;;;;3.87;2.40;;;;;;;;;;5019662;28;20422;-73
2021/08/20 12:18:22;;;;;;;3.43;2.47;;;;;;;;;;5033262;28;20846;-73
2021/08/20 12:20:48;;;;;;;3.83;2.63;;;;;;;;;;5032328;28;20441;-73
2021/08/20 12:23:14;;;;;;;4.53;2.67;;;;;;;;;;5031898;28;20838;-73
2021/08/20 12:25:40;;;;;;;3.73;2.30;;;;;;;;;;5032457;28;20773;-73
2021/08/20 12:28:13;;;;;;;3.10;2.40;;;;;;;;;;5033375;28;20805;-72
2021/08/20 12:30:40;;;;;;;3.77;2.30;;;;;;;;;;5028367;28;20450;-73
2021/08/20 12:33:06;;;;;;;2.80;1.80;;;;;;;;;;5033648;28;20445;-73
2021/08/20 12:35:32;;;;;;;3.50;2.50;;;;;;;;;;5032474;28;20454;-73
2021/08/20 12:38:09;;;;;;;2.90;2.27;;;;;;;;;;5033015;28;20418;-73
2021/08/20 12:40:48;;;;;;;3.70;2.67;;;;;;;;;;5030966;28;20435;-73
2021/08/20 12:43:21;;;;;;;4.37;2.33;;;;;;;;;;5032728;28;20415;-74
2021/08/20 12:46:07;;;;;;;2.83;1.80;;;;;;;;;;5032480;28;20930;-73
2021/08/20 12:48:33;;;;;;;5.23;2.60;;;;;;;;;;5034143;28;20755;-74
2021/08/20 12:51:00;;;;;;;3.20;1.93;;;;;;;;;;5031091;28;20453;-73
2021/08/20 12:53:29;;;;;;;4.73;2.77;;;;;;;;;;5033528;28;20410;-73
2021/08/20 12:55:55;;;;;;;4.20;2.60;;;;;;;;;;5030403;28;20426;-73
2021/08/20 12:58:29;;;;;;;4.00;2.47;;;;;;;;;;5033205;28;20907;-74
2021/08/20 13:00:58;;;;;;;3.30;2.20;;;;;;;;;;5030983;28;20536;-73
2021/08/20 13:03:24;;;;;;;4.20;2.30;;;;;;;;;;5033398;28;20406;-73
2021/08/20 13:06:00;;;;;;;2.90;2.37;;;;;;;;;;5035588;28;20430;-73
2021/08/20 13:08:28;;;;;;;9.17;2.07;;;;;;;;;;5037395;28;20397;-73
2021/08/20 13:10:55;;;;;;;3.20;2.57;;;;;;;;;;5034491;28;21051;-73
2021/08/20 13:13:21;;;;;;;4.63;2.70;;;;;;;;;;5035369;28;20399;-73
2021/08/20 13:15:47;;;;;;;3.67;2.47;;;;;;;;;;5033580;28;20484;-72
2021/08/20 13:18:16;;;;;;;3.80;2.20;;;;;;;;;;5035389;28;20513;-73
2021/08/20 13:20:43;;;;;;;2.90;2.17;;;;;;;;;;5020432;28;20819;-72
2021/08/20 13:23:09;;;;;;;3.40;2.50;;;;;;;;;;5035349;28;20410;-73
2021/08/20 13:25:35;;;;;;;4.90;3.03;;;;;;;;;;5034916;28;20456;-72
2021/08/20 13:28:01;;;;;;;3.73;2.60;;;;;;;;;;5036192;28;20432;-73
2021/08/20 13:30:27;;;;;;;3.63;2.13;;;;;;;;;;5031738;28;20489;-72
2021/08/20 13:32:54;;;;;;;3.50;2.13;;;;;;;;;;5033530;28;20427;-70
2021/08/20 13:35:20;;;;;;;3.10;2.10;;;;;;;;;;5027821;28;20437;-69
2021/08/20 13:37:47;;;;;;;3.67;2.27;;;;;;;;;;5020720;28;20443;-66
2021/08/20 13:40:13;;;;;;;4.17;2.70;;;;;;;;;;5033779;28;20779;-69
2021/08/20 13:42:39;;;;;;;3.20;2.57;;;;;;;;;;5034258;28;20942;-70
2021/08/20 13:45:05;;;;;;;4.23;2.70;;;;;;;;;;5035945;28;20872;-70
2021/08/20 13:47:31;;;;;;;3.80;2.47;;;;;;;;;;5033266;28;20450;-71
2021/08/20 13:49:58;;;;;;;3.57;2.50;;;;;;;;;;5029333;28;21014;-71
2021/08/20 13:52:24;;;;;;;3.30;2.50;;;;;;;;;;5033175;28;20766;-72
2021/08/20 13:54:50;;;;;;;3.10;2.27;;;;;;;;;;5032323;28;20419;-72
2021/08/20 13:57:16;;;;;;;2.97;2.37;;;;;;;;;;5026798;28;20449;-72
2021/08/20 13:59:42;;;;;;;4.40;2.70;;;;;;;;;;5022700;28;20424;-72
2021/08/20 14:02:08;;;;;;;4.30;2.73;;;;;;;;;;5029096;28;20430;-71
2021/08/20 14:04:34;;;;;;;5.80;2.63;;;;;;;;;;5016456;28;20419;-71
2021/08/20 14:07:00;;;;;;;4.07;2.60;;;;;;;;;;5022448;28;20431;-71
2021/08/20 14:09:26;;;;;;;5.10;2.40;;;;;;;;;;5019305;28;20934;-71
2021/08/20 14:11:52;;;;;;;4.07;2.70;;;;;;;;;;5029797;28;20458;-70
2021/08/20 14:14:18;;;;;;;3.60;2.73;;;;;;;;;;5018323;28;20834;-70
2021/08/20 14:16:44;;;;;;;4.87;2.97;;;;;;;;;;5028872;28;20971;-71
2021/08/20 14:19:10;;;;;;;9.43;4.00;;;;;;;;;;5019982;28;20477;-71
2021/08/20 14:21:36;;;;;;;4.20;2.57;;;;;;;;;;5027433;28;20426;-70
2021/08/20 14:24:03;;;;;;;3.90;2.50;;;;;;;;;;5034948;28;20446;-71
2021/08/20 14:26:29;;;;;;;4.90;3.13;;;;;;;;;;5027904;28;20455;-70
2021/08/20 14:28:55;;;;;;;3.40;2.27;;;;;;;;;;5034604;28;20422;-70
2021/08/20 14:31:21;;;;;;;4.83;2.80;;;;;;;;;;5028097;28;20462;-71
2021/08/20 14:33:47;;;;;;;6.20;2.90;;;;;;;;;;5035661;28;20399;-71
2021/08/20 14:36:13;;;;;;;3.63;2.43;;;;;;;;;;5028117;28;20426;-70
2021/08/20 14:38:39;;;;;;;4.93;2.60;;;;;;;;;;5021072;28;20404;-70
2021/08/20 14:41:05;;;;;;;3.33;2.40;;;;;;;;;;5031036;28;20572;-71
2021/08/20 14:43:33;;;;;;;3.87;2.50;;;;;;;;;;5033377;28;20430;-73
2021/08/20 14:45:59;;;;;;;3.93;2.07;;;;;;;;;;5028633;28;20420;-71
2021/08/20 14:48:25;;;;;;;4.00;2.20;;;;;;;;;;5029557;28;20413;-71